createdAt,value
2023-05-13T15:49:55.600Z,15.40
2023-05-13T15:52:24.964Z,15.00
2023-05-13T15:54:56.797Z,15.20
2023-05-13T15:57:25.975Z,15.50
2023-05-13T15:59:55.376Z,15.60
2023-05-13T16:02:25.000Z,16.00
2023-05-13T16:04:55.934Z,16.30
2023-05-13T16:07:29.134Z,16.50
2023-05-13T16:09:58.595Z,16.50
2023-05-13T16:12:27.920Z,16.70
2023-05-13T16:14:57.903Z,16.90
2023-05-13T16:17:27.682Z,17.20
2023-05-13T16:19:58.893Z,17.30
2023-05-13T16:22:34.196Z,17.50
2023-05-13T16:25:06.650Z,17.80
2023-05-13T16:27:36.582Z,18.00
2023-05-13T16:30:08.848Z,18.20
2023-05-13T16:32:38.348Z,18.50
2023-05-13T16:35:12.083Z,18.70
2023-05-13T16:37:41.492Z,18.80
2023-05-13T16:40:12.628Z,19.00
2023-05-13T16:42:42.402Z,19.10
2023-05-13T16:45:12.083Z,19.10
2023-05-13T16:47:41.206Z,19.00
2023-05-13T16:50:12.433Z,18.80
2023-05-13T16:52:41.489Z,18.60
2023-05-13T16:55:11.424Z,18.40
2023-05-13T16:57:40.870Z,18.20
2023-05-13T17:00:11.237Z,18.10
2023-05-13T17:02:41.208Z,17.90
2023-05-13T17:05:12.208Z,17.80
2023-05-13T17:07:41.438Z,17.70
2023-05-13T17:10:11.388Z,17.60
2023-05-13T17:12:40.651Z,17.50
2023-05-13T17:15:10.267Z,17.40
2023-05-13T17:17:39.797Z,17.20
2023-05-13T17:20:11.862Z,17.10
2023-05-13T17:22:44.768Z,16.90
2023-05-13T17:25:13.882Z,16.80
2023-05-13T17:27:42.917Z,16.70
2023-05-13T17:30:13.441Z,16.60
2023-05-13T17:32:42.535Z,16.50
2023-05-13T17:35:13.157Z,16.30
2023-05-13T17:37:42.200Z,16.30
2023-05-13T17:40:11.950Z,16.20
2023-05-13T17:42:41.137Z,16.20
2023-05-13T17:45:11.426Z,16.10
2023-05-13T17:47:40.695Z,15.90
2023-05-13T17:50:13.551Z,15.80
2023-05-13T17:52:42.739Z,15.70
2023-05-13T17:55:12.078Z,15.50
2023-05-13T17:57:41.352Z,15.40
2023-05-13T18:00:11.178Z,15.30
2023-05-13T18:02:40.595Z,15.30
2023-05-13T18:05:11.259Z,15.20
2023-05-13T18:07:41.566Z,15.10
2023-05-13T18:10:11.314Z,15.00
2023-05-13T18:12:40.107Z,14.90
2023-05-13T18:15:09.695Z,14.80
2023-05-13T18:17:38.582Z,14.70
2023-05-13T18:20:09.760Z,14.50
2023-05-13T18:22:39.035Z,14.40
2023-05-13T18:25:11.131Z,14.30
2023-05-13T18:27:40.238Z,14.20
2023-05-13T18:30:10.094Z,14.10
2023-05-13T18:32:39.002Z,14.00
2023-05-13T18:35:08.698Z,13.90
2023-05-13T18:37:38.548Z,13.80
2023-05-13T18:40:10.302Z,13.70
2023-05-13T18:42:42.848Z,13.60
2023-05-13T18:45:12.743Z,13.50
2023-05-13T18:47:41.838Z,13.40
2023-05-13T18:50:12.194Z,13.30
2023-05-13T18:52:41.548Z,13.30
2023-05-13T18:55:12.533Z,13.20
2023-05-13T18:57:41.677Z,13.10
2023-05-13T19:00:11.311Z,13.00
2023-05-13T19:02:40.788Z,13.00
2023-05-13T19:05:10.632Z,12.90
2023-05-13T19:07:39.597Z,12.80
2023-05-13T19:10:11.744Z,12.70
2023-05-13T19:12:40.890Z,12.70
2023-05-13T19:15:11.944Z,12.60
2023-05-13T19:17:41.990Z,12.60
2023-05-13T19:20:12.283Z,12.60
2023-05-13T19:22:41.917Z,12.50
2023-05-13T19:25:12.636Z,12.40
2023-05-13T19:27:42.558Z,12.40
2023-05-13T19:30:13.118Z,12.30
2023-05-13T19:32:42.295Z,12.20
2023-05-13T19:35:13.265Z,12.20
2023-05-13T19:37:42.947Z,12.10
2023-05-13T19:40:14.549Z,12.10
2023-05-13T19:42:47.852Z,12.00
2023-05-13T19:45:21.277Z,12.00
2023-05-13T19:47:56.530Z,11.90
2023-05-13T19:50:30.792Z,11.90
2023-05-13T19:53:05.762Z,11.90
2023-05-13T19:55:37.518Z,11.90
2023-05-13T19:58:06.854Z,11.80
2023-05-13T20:00:36.257Z,11.80
2023-05-13T20:03:05.755Z,11.70
2023-05-13T20:05:35.011Z,11.70
2023-05-13T20:08:07.849Z,11.60
2023-05-13T20:10:41.037Z,11.60
2023-05-13T20:13:12.909Z,11.60
2023-05-13T20:15:44.576Z,11.50
2023-05-13T20:18:13.762Z,11.50
2023-05-13T20:20:48.855Z,11.50
2023-05-13T20:23:20.129Z,11.40
2023-05-13T20:25:51.354Z,11.40
2023-05-13T20:28:20.503Z,11.40
2023-05-13T20:30:50.024Z,11.40
2023-05-13T20:33:19.380Z,11.40
2023-05-13T20:35:49.537Z,11.40
2023-05-13T20:38:18.580Z,11.40
2023-05-13T20:40:47.819Z,11.40
2023-05-13T20:43:20.916Z,11.40
2023-05-13T20:45:50.056Z,11.30
2023-05-13T20:48:19.552Z,11.30
2023-05-13T20:50:48.471Z,11.30
2023-05-13T20:53:17.608Z,11.30
2023-05-13T20:55:46.818Z,11.30
2023-05-13T20:58:17.191Z,11.20
2023-05-13T21:00:47.701Z,11.20
2023-05-13T21:03:18.199Z,11.20
2023-05-13T21:05:47.448Z,11.20
2023-05-13T21:08:16.860Z,11.20
2023-05-13T21:10:45.924Z,11.20
2023-05-13T21:13:15.263Z,11.20
2023-05-13T21:15:44.507Z,11.20
2023-05-13T21:18:15.309Z,11.20
2023-05-13T21:20:46.047Z,11.10
2023-05-13T21:23:14.944Z,11.10
2023-05-13T21:25:44.049Z,11.10
2023-05-13T21:28:13.166Z,11.10
2023-05-13T21:30:42.124Z,11.00
2023-05-13T21:33:11.106Z,11.00
2023-05-13T21:35:41.702Z,10.90
2023-05-13T21:38:12.608Z,10.80
2023-05-13T21:40:41.841Z,10.80
2023-05-13T21:43:11.146Z,10.80
2023-05-13T21:45:40.306Z,10.70
2023-05-13T21:48:09.335Z,10.70
2023-05-13T21:50:38.320Z,10.70
2023-05-13T21:53:08.600Z,10.60
2023-05-13T21:55:40.658Z,10.50
2023-05-13T21:58:15.240Z,10.50
2023-05-13T22:00:47.356Z,10.40
2023-05-13T22:03:16.538Z,10.40
2023-05-13T22:05:45.918Z,10.40
2023-05-13T22:08:16.493Z,10.30
2023-05-13T22:10:45.604Z,10.30
2023-05-13T22:13:14.776Z,10.30
2023-05-13T22:15:44.105Z,10.30
2023-05-13T22:18:13.299Z,10.30
2023-05-13T22:20:43.142Z,10.30
2023-05-13T22:23:12.173Z,10.20
2023-05-13T22:25:42.754Z,10.30
2023-05-13T22:28:11.852Z,10.20
2023-05-13T22:30:40.954Z,10.20
2023-05-13T22:33:09.932Z,10.20
2023-05-13T22:35:39.857Z,10.30
2023-05-13T22:38:08.932Z,10.30
2023-05-13T22:40:38.709Z,10.30
2023-05-13T22:43:09.210Z,10.20
2023-05-13T22:45:39.185Z,10.20
2023-05-13T22:48:08.487Z,10.10
2023-05-13T22:50:38.158Z,10.10
2023-05-13T22:53:07.147Z,10.00
2023-05-13T22:55:36.315Z,9.90
2023-05-13T22:58:05.306Z,9.90
2023-05-13T23:00:35.957Z,9.80
2023-05-13T23:03:05.081Z,9.70
2023-05-13T23:05:34.208Z,9.70
2023-05-13T23:08:03.362Z,9.60
2023-05-13T23:10:33.340Z,9.60
2023-05-13T23:13:04.308Z,9.50
2023-05-13T23:15:36.693Z,9.50
2023-05-13T23:18:06.002Z,9.40
2023-05-13T23:20:35.114Z,9.40
2023-05-13T23:23:04.220Z,9.40
2023-05-13T23:25:33.351Z,9.40
2023-05-13T23:28:02.556Z,9.40
2023-05-13T23:30:31.590Z,9.40
2023-05-13T23:33:02.700Z,9.40
2023-05-13T23:35:31.912Z,9.40
2023-05-13T23:38:01.585Z,9.40
2023-05-13T23:40:30.667Z,9.40
2023-05-13T23:42:59.865Z,9.40
2023-05-13T23:45:29.010Z,9.40
2023-05-13T23:47:58.193Z,9.40
2023-05-13T23:50:28.926Z,9.40
2023-05-13T23:52:58.034Z,9.50
2023-05-13T23:55:27.218Z,9.50
2023-05-13T23:57:56.574Z,9.60
